sensor_id;sensor_type;location;lat;lon;timestamp;pressure;altitude;pressure_sealevel;temperature;humidity
58239;BME280;44037;55.638;37.356;2022-12-08T00:01:51;99595.94;;;-8.24;74.20
58239;BME280;44037;55.638;37.356;2022-12-08T00:04:18;99596.84;;;-8.24;73.89
58239;BME280;44037;55.638;37.356;2022-12-08T00:06:45;99591.06;;;-8.23;74.20
58239;BME280;44037;55.638;37.356;2022-12-08T00:09:32;99596.97;;;-8.22;73.96
58239;BME280;44037;55.638;37.356;2022-12-08T00:12:03;99602.88;;;-8.22;74.09
58239;BME280;44037;55.638;37.356;2022-12-08T00:14:32;99601.88;;;-8.24;73.85
58239;BME280;44037;55.638;37.356;2022-12-08T00:17:00;99600.22;;;-8.23;73.93
58239;BME280;44037;55.638;37.356;2022-12-08T00:19:28;99615.47;;;-8.22;74.02
58239;BME280;44037;55.638;37.356;2022-12-08T00:21:56;99601.13;;;-8.23;74.08
58239;BME280;44037;55.638;37.356;2022-12-08T00:24:24;99586.16;;;-8.21;74.04
58239;BME280;44037;55.638;37.356;2022-12-08T00:26:55;99582.78;;;-8.22;74.03
58239;BME280;44037;55.638;37.356;2022-12-08T00:29:23;99592.31;;;-8.18;74.05
58239;BME280;44037;55.638;37.356;2022-12-08T00:31:50;99583.25;;;-8.15;73.65
58239;BME280;44037;55.638;37.356;2022-12-08T00:34:17;99580.63;;;-8.17;73.47
58239;BME280;44037;55.638;37.356;2022-12-08T00:36:44;99584.66;;;-8.19;73.50
58239;BME280;44037;55.638;37.356;2022-12-08T00:39:13;99571.22;;;-8.20;73.45
58239;BME280;44037;55.638;37.356;2022-12-08T00:41:40;99566.19;;;-8.20;73.86
58239;BME280;44037;55.638;37.356;2022-12-08T00:44:26;99563.66;;;-8.20;73.45
58239;BME280;44037;55.638;37.356;2022-12-08T00:46:53;99567.91;;;-8.19;73.53
58239;BME280;44037;55.638;37.356;2022-12-08T00:49:21;99567.16;;;-8.18;73.64
58239;BME280;44037;55.638;37.356;2022-12-08T00:51:48;99575.47;;;-8.19;73.45
58239;BME280;44037;55.638;37.356;2022-12-08T00:54:15;99579.72;;;-8.18;73.30
58239;BME280;44037;55.638;37.356;2022-12-08T00:56:43;99582.41;;;-8.16;73.27
58239;BME280;44037;55.638;37.356;2022-12-08T00:59:10;99587.28;;;-8.18;73.39
58239;BME280;44037;55.638;37.356;2022-12-08T01:01:39;99585.78;;;-8.15;73.14
58239;BME280;44037;55.638;37.356;2022-12-08T01:04:08;99585.66;;;-8.17;73.29
58239;BME280;44037;55.638;37.356;2022-12-08T01:06:36;99593.47;;;-8.14;73.18
58239;BME280;44037;55.638;37.356;2022-12-08T01:09:05;99586.78;;;-8.13;73.42
58239;BME280;44037;55.638;37.356;2022-12-08T01:11:32;99591.19;;;-8.11;73.25
58239;BME280;44037;55.638;37.356;2022-12-08T01:14:00;99586.16;;;-8.11;73.16
58239;BME280;44037;55.638;37.356;2022-12-08T01:16:29;99581.75;;;-8.13;72.92
58239;BME280;44037;55.638;37.356;2022-12-08T01:18:59;99588.28;;;-8.15;73.14
58239;BME280;44037;55.638;37.356;2022-12-08T01:21:26;99585.91;;;-8.14;73.35
58239;BME280;44037;55.638;37.356;2022-12-08T01:23:54;99581.50;;;-8.17;72.90
58239;BME280;44037;55.638;37.356;2022-12-08T01:26:22;99584.00;;;-8.17;73.07
58239;BME280;44037;55.638;37.356;2022-12-08T01:28:49;99577.97;;;-8.19;73.07
58239;BME280;44037;55.638;37.356;2022-12-08T01:31:19;99576.34;;;-8.18;73.11
58239;BME280;44037;55.638;37.356;2022-12-08T01:33:47;99571.97;;;-8.21;73.12
58239;BME280;44037;55.638;37.356;2022-12-08T01:36:20;99579.50;;;-8.21;73.06
58239;BME280;44037;55.638;37.356;2022-12-08T01:38:47;99570.31;;;-8.20;72.78
58239;BME280;44037;55.638;37.356;2022-12-08T01:41:16;99577.09;;;-8.19;73.27
58239;BME280;44037;55.638;37.356;2022-12-08T01:43:55;99579.34;;;-8.22;72.86
58239;BME280;44037;55.638;37.356;2022-12-08T01:46:23;99566.69;;;-8.24;73.11
58239;BME280;44037;55.638;37.356;2022-12-08T01:48:53;99570.06;;;-8.23;72.98
58239;BME280;44037;55.638;37.356;2022-12-08T01:51:23;99572.44;;;-8.25;73.41
58239;BME280;44037;55.638;37.356;2022-12-08T01:53:51;99566.69;;;-8.24;73.58
58239;BME280;44037;55.638;37.356;2022-12-08T01:56:22;99554.84;;;-8.25;73.47
58239;BME280;44037;55.638;37.356;2022-12-08T01:58:53;99563.91;;;-8.27;73.46
58239;BME280;44037;55.638;37.356;2022-12-08T02:01:21;99572.06;;;-8.29;72.92
58239;BME280;44037;55.638;37.356;2022-12-08T02:03:52;99556.09;;;-8.30;73.11
58239;BME280;44037;55.638;37.356;2022-12-08T02:06:23;99540.91;;;-8.31;73.13
58239;BME280;44037;55.638;37.356;2022-12-08T02:08:52;99554.84;;;-8.35;72.98
58239;BME280;44037;55.638;37.356;2022-12-08T02:11:20;99549.84;;;-8.35;73.37
58239;BME280;44037;55.638;37.356;2022-12-08T02:13:49;99541.41;;;-8.36;73.53
58239;BME280;44037;55.638;37.356;2022-12-08T02:16:26;99542.16;;;-8.37;73.30
58239;BME280;44037;55.638;37.356;2022-12-08T02:19:05;99525.56;;;-8.35;73.59
58239;BME280;44037;55.638;37.356;2022-12-08T02:21:42;99530.59;;;-8.35;73.49
58239;BME280;44037;55.638;37.356;2022-12-08T02:24:17;99531.13;;;-8.39;73.27
58239;BME280;44037;55.638;37.356;2022-12-08T02:27:10;99532.63;;;-8.41;73.52
58239;BME280;44037;55.638;37.356;2022-12-08T02:33:46;99524.56;;;-8.47;73.58
58239;BME280;44037;55.638;37.356;2022-12-08T02:36:26;99537.03;;;-8.49;74.22
58239;BME280;44037;55.638;37.356;2022-12-08T02:39:02;99532.88;;;-8.48;74.30
58239;BME280;44037;55.638;37.356;2022-12-08T02:41:38;99544.81;;;-8.45;74.30
58239;BME280;44037;55.638;37.356;2022-12-08T02:44:11;99540.41;;;-8.48;74.25
58239;BME280;44037;55.638;37.356;2022-12-08T02:46:46;99532.50;;;-8.53;74.22
58239;BME280;44037;55.638;37.356;2022-12-08T02:49:15;99523.94;;;-8.55;74.75
58239;BME280;44037;55.638;37.356;2022-12-08T02:51:42;99533.25;;;-8.54;75.35
58239;BME280;44037;55.638;37.356;2022-12-08T02:54:09;99517.56;;;-8.51;75.41
58239;BME280;44037;55.638;37.356;2022-12-08T02:56:52;99526.09;;;-8.49;75.25
58239;BME280;44037;55.638;37.356;2022-12-08T02:59:32;99526.97;;;-8.49;75.24
58239;BME280;44037;55.638;37.356;2022-12-08T03:02:16;99519.28;;;-8.50;75.16
58239;BME280;44037;55.638;37.356;2022-12-08T03:04:53;99517.78;;;-8.48;75.43
58239;BME280;44037;55.638;37.356;2022-12-08T03:07:27;99519.03;;;-8.43;75.27
58239;BME280;44037;55.638;37.356;2022-12-08T03:10:01;99508.97;;;-8.43;75.45
58239;BME280;44037;55.638;37.356;2022-12-08T03:12:34;99516.53;;;-8.43;75.32
58239;BME280;44037;55.638;37.356;2022-12-08T03:15:06;99513.00;;;-8.45;75.16
58239;BME280;44037;55.638;37.356;2022-12-08T03:17:36;99500.44;;;-8.45;75.19
58239;BME280;44037;55.638;37.356;2022-12-08T03:20:09;99505.34;;;-8.46;74.97
58239;BME280;44037;55.638;37.356;2022-12-08T03:22:39;99508.72;;;-8.46;75.15
58239;BME280;44037;55.638;37.356;2022-12-08T03:25:08;99514.00;;;-8.43;75.07
58239;BME280;44037;55.638;37.356;2022-12-08T03:27:38;99507.34;;;-8.42;75.40
58239;BME280;44037;55.638;37.356;2022-12-08T03:30:06;99508.09;;;-8.43;74.96
58239;BME280;44037;55.638;37.356;2022-12-08T03:32:36;99507.09;;;-8.45;75.16
58239;BME280;44037;55.638;37.356;2022-12-08T03:35:10;99500.31;;;-8.46;75.22
58239;BME280;44037;55.638;37.356;2022-12-08T03:37:39;99501.94;;;-8.47;75.22
58239;BME280;44037;55.638;37.356;2022-12-08T03:40:08;99502.72;;;-8.48;75.71
58239;BME280;44037;55.638;37.356;2022-12-08T03:42:38;99493.78;;;-8.44;75.46
58239;BME280;44037;55.638;37.356;2022-12-08T03:45:06;99490.50;;;-8.43;75.27
58239;BME280;44037;55.638;37.356;2022-12-08T03:47:33;99500.53;;;-8.43;75.77
58239;BME280;44037;55.638;37.356;2022-12-08T03:50:00;99489.75;;;-8.42;75.58
58239;BME280;44037;55.638;37.356;2022-12-08T03:52:30;99488.13;;;-8.42;75.37
58239;BME280;44037;55.638;37.356;2022-12-08T03:54:57;99478.94;;;-8.41;75.58
58239;BME280;44037;55.638;37.356;2022-12-08T03:57:24;99475.66;;;-8.40;75.72
58239;BME280;44037;55.638;37.356;2022-12-08T03:59:51;99486.72;;;-8.38;75.60
58239;BME280;44037;55.638;37.356;2022-12-08T04:02:18;99465.63;;;-8.40;75.45
58239;BME280;44037;55.638;37.356;2022-12-08T04:04:45;99471.91;;;-8.45;75.42
58239;BME280;44037;55.638;37.356;2022-12-08T04:07:12;99477.06;;;-8.44;75.65
58239;BME280;44037;55.638;37.356;2022-12-08T04:09:40;99477.06;;;-8.44;75.63
58239;BME280;44037;55.638;37.356;2022-12-08T04:12:08;99450.41;;;-8.42;75.91
58239;BME280;44037;55.638;37.356;2022-12-08T04:14:35;99468.28;;;-8.39;76.08
58239;BME280;44037;55.638;37.356;2022-12-08T04:17:02;99472.41;;;-8.39;75.71
58239;BME280;44037;55.638;37.356;2022-12-08T04:19:29;99469.53;;;-8.44;76.01
58239;BME280;44037;55.638;37.356;2022-12-08T04:21:56;99467.88;;;-8.43;76.39
58239;BME280;44037;55.638;37.356;2022-12-08T04:24:23;99473.78;;;-8.43;76.25
58239;BME280;44037;55.638;37.356;2022-12-08T04:26:51;99476.31;;;-8.43;76.96
58239;BME280;44037;55.638;37.356;2022-12-08T04:29:18;99475.41;;;-8.43;77.33
58239;BME280;44037;55.638;37.356;2022-12-08T04:31:46;99472.66;;;-8.46;77.39
58239;BME280;44037;55.638;37.356;2022-12-08T04:34:13;99480.00;;;-8.50;77.68
58239;BME280;44037;55.638;37.356;2022-12-08T04:36:40;99480.00;;;-8.50;78.02
58239;BME280;44037;55.638;37.356;2022-12-08T04:39:07;99460.75;;;-8.49;77.95
58239;BME280;44037;55.638;37.356;2022-12-08T04:41:34;99469.94;;;-8.50;78.48
58239;BME280;44037;55.638;37.356;2022-12-08T04:44:02;99474.97;;;-8.50;78.51
58239;BME280;44037;55.638;37.356;2022-12-08T04:46:29;99468.44;;;-8.47;78.50
58239;BME280;44037;55.638;37.356;2022-12-08T04:48:56;99475.97;;;-8.47;78.60
58239;BME280;44037;55.638;37.356;2022-12-08T04:51:23;99466.53;;;-8.50;78.97
58239;BME280;44037;55.638;37.356;2022-12-08T04:53:51;99468.06;;;-8.52;79.27
58239;BME280;44037;55.638;37.356;2022-12-08T04:56:18;99451.34;;;-8.52;79.23
58239;BME280;44037;55.638;37.356;2022-12-08T04:58:46;99469.69;;;-8.53;79.07
58239;BME280;44037;55.638;37.356;2022-12-08T05:01:14;99457.13;;;-8.53;79.27
58239;BME280;44037;55.638;37.356;2022-12-08T05:03:41;99458.00;;;-8.52;79.31
58239;BME280;44037;55.638;37.356;2022-12-08T05:06:10;99459.88;;;-8.50;79.40
58239;BME280;44037;55.638;37.356;2022-12-08T05:08:38;99453.22;;;-8.49;79.79
58239;BME280;44037;55.638;37.356;2022-12-08T05:11:07;99464.00;;;-8.50;79.41
58239;BME280;44037;55.638;37.356;2022-12-08T05:13:35;99463.16;;;-8.51;79.23
58239;BME280;44037;55.638;37.356;2022-12-08T05:16:03;99460.53;;;-8.52;78.99
58239;BME280;44037;55.638;37.356;2022-12-08T05:18:32;99460.25;;;-8.55;79.33
58239;BME280;44037;55.638;37.356;2022-12-08T05:20:59;99459.38;;;-8.56;79.64
58239;BME280;44037;55.638;37.356;2022-12-08T05:23:26;99468.81;;;-8.53;79.54
58239;BME280;44037;55.638;37.356;2022-12-08T05:25:53;99451.34;;;-8.52;79.49
58239;BME280;44037;55.638;37.356;2022-12-08T05:28:20;99444.53;;;-8.53;79.52
58239;BME280;44037;55.638;37.356;2022-12-08T05:30:47;99459.63;;;-8.53;79.25
58239;BME280;44037;55.638;37.356;2022-12-08T05:33:14;99458.00;;;-8.52;79.44
58239;BME280;44037;55.638;37.356;2022-12-08T05:35:43;99456.34;;;-8.52;79.50
58239;BME280;44037;55.638;37.356;2022-12-08T05:38:10;99458.13;;;-8.51;79.21
58239;BME280;44037;55.638;37.356;2022-12-08T05:40:37;99436.25;;;-8.52;79.45
58239;BME280;44037;55.638;37.356;2022-12-08T05:43:05;99449.56;;;-8.53;79.22
58239;BME280;44037;55.638;37.356;2022-12-08T05:45:32;99466.53;;;-8.50;79.48
58239;BME280;44037;55.638;37.356;2022-12-08T05:47:59;99460.63;;;-8.51;79.42
58239;BME280;44037;55.638;37.356;2022-12-08T05:50:26;99462.41;;;-8.50;79.66
58239;BME280;44037;55.638;37.356;2022-12-08T05:52:55;99458.47;;;-8.46;79.90
58239;BME280;44037;55.638;37.356;2022-12-08T05:55:22;99467.00;;;-8.44;79.46
58239;BME280;44037;55.638;37.356;2022-12-08T05:57:49;99463.47;;;-8.46;79.38
58239;BME280;44037;55.638;37.356;2022-12-08T06:00:17;99466.91;;;-8.45;79.30
58239;BME280;44037;55.638;37.356;2022-12-08T06:02:44;99461.88;;;-8.45;80.08
58239;BME280;44037;55.638;37.356;2022-12-08T06:05:11;99462.25;;;-8.41;79.75
58239;BME280;44037;55.638;37.356;2022-12-08T06:07:38;99471.53;;;-8.40;79.45
58239;BME280;44037;55.638;37.356;2022-12-08T06:10:07;99463.09;;;-8.40;79.69
58239;BME280;44037;55.638;37.356;2022-12-08T06:12:35;99452.94;;;-8.42;79.63
58239;BME280;44037;55.638;37.356;2022-12-08T06:15:02;99462.25;;;-8.41;79.62
58239;BME280;44037;55.638;37.356;2022-12-08T06:17:30;99455.81;;;-8.37;79.71
58239;BME280;44037;55.638;37.356;2022-12-08T06:19:57;99447.78;;;-8.33;79.81
58239;BME280;44037;55.638;37.356;2022-12-08T06:22:24;99447.78;;;-8.33;79.38
58239;BME280;44037;55.638;37.356;2022-12-08T06:24:51;99454.69;;;-8.30;79.39
58239;BME280;44037;55.638;37.356;2022-12-08T06:27:19;99448.00;;;-8.30;79.35
58239;BME280;44037;55.638;37.356;2022-12-08T06:29:46;99448.25;;;-8.27;79.43
58239;BME280;44037;55.638;37.356;2022-12-08T06:32:14;99444.25;;;-8.25;79.49
58239;BME280;44037;55.638;37.356;2022-12-08T06:34:41;99448.50;;;-8.24;79.24
58239;BME280;44037;55.638;37.356;2022-12-08T06:37:08;99451.78;;;-8.25;78.90
58239;BME280;44037;55.638;37.356;2022-12-08T06:39:35;99458.56;;;-8.24;78.90
58239;BME280;44037;55.638;37.356;2022-12-08T06:42:02;99462.69;;;-8.24;79.12
58239;BME280;44037;55.638;37.356;2022-12-08T06:44:49;99459.44;;;-8.23;79.27
58239;BME280;44037;55.638;37.356;2022-12-08T06:47:16;99468.13;;;-8.20;79.13
58239;BME280;44037;55.638;37.356;2022-12-08T06:49:44;99456.66;;;-8.16;78.92
58239;BME280;44037;55.638;37.356;2022-12-08T06:52:11;99461.06;;;-8.13;79.21
58239;BME280;44037;55.638;37.356;2022-12-08T06:54:38;99442.94;;;-8.09;78.80
58239;BME280;44037;55.638;37.356;2022-12-08T06:57:05;99451.50;;;-8.07;78.97
58239;BME280;44037;55.638;37.356;2022-12-08T06:59:32;99460.16;;;-8.04;78.80
58239;BME280;44037;55.638;37.356;2022-12-08T07:02:01;99449.47;;;-8.01;78.56
58239;BME280;44037;55.638;37.356;2022-12-08T07:04:28;99441.16;;;-8.00;78.49
58239;BME280;44037;55.638;37.356;2022-12-08T07:06:55;99444.69;;;-7.98;78.00
58239;BME280;44037;55.638;37.356;2022-12-08T07:09:22;99447.06;;;-7.99;77.61
58239;BME280;44037;55.638;37.356;2022-12-08T07:11:49;99447.06;;;-7.99;77.51
58239;BME280;44037;55.638;37.356;2022-12-08T07:14:16;99450.81;;;-7.94;77.39
58239;BME280;44037;55.638;37.356;2022-12-08T07:16:44;99448.81;;;-7.88;76.97
58239;BME280;44037;55.638;37.356;2022-12-08T07:19:13;99451.53;;;-7.85;76.91
58239;BME280;44037;55.638;37.356;2022-12-08T07:21:40;99442.22;;;-7.76;76.51
58239;BME280;44037;55.638;37.356;2022-12-08T07:24:07;99450.50;;;-7.66;76.20
58239;BME280;44037;55.638;37.356;2022-12-08T07:26:34;99459.25;;;-7.61;76.14
58239;BME280;44037;55.638;37.356;2022-12-08T07:29:02;99460.63;;;-7.54;76.16
58239;BME280;44037;55.638;37.356;2022-12-08T07:31:29;99438.22;;;-7.51;75.83
58239;BME280;44037;55.638;37.356;2022-12-08T07:33:56;99440.06;;;-7.49;75.37
58239;BME280;44037;55.638;37.356;2022-12-08T07:36:25;99448.63;;;-7.47;75.14
58239;BME280;44037;55.638;37.356;2022-12-08T07:38:52;99445.50;;;-7.44;75.28
58239;BME280;44037;55.638;37.356;2022-12-08T07:41:21;99446.47;;;-7.42;75.36
58239;BME280;44037;55.638;37.356;2022-12-08T07:43:49;99436.63;;;-7.39;75.13
58239;BME280;44037;55.638;37.356;2022-12-08T07:46:18;99445.09;;;-7.38;75.42
58239;BME280;44037;55.638;37.356;2022-12-08T07:48:46;99453.38;;;-7.39;75.07
58239;BME280;44037;55.638;37.356;2022-12-08T07:51:14;99445.09;;;-7.38;74.82
58239;BME280;44037;55.638;37.356;2022-12-08T07:53:44;99442.03;;;-7.34;75.11
58239;BME280;44037;55.638;37.356;2022-12-08T07:56:12;99435.63;;;-7.19;75.48
58239;BME280;44037;55.638;37.356;2022-12-08T07:58:40;99428.34;;;-7.04;75.09
58239;BME280;44037;55.638;37.356;2022-12-08T08:01:21;99418.00;;;-6.97;74.57
58239;BME280;44037;55.638;37.356;2022-12-08T08:03:48;99422.72;;;-6.89;74.19
58239;BME280;44037;55.638;37.356;2022-12-08T08:06:16;99412.88;;;-6.86;73.44
58239;BME280;44037;55.638;37.356;2022-12-08T08:08:44;99416.25;;;-6.86;73.36
58239;BME280;44037;55.638;37.356;2022-12-08T08:11:11;99412.22;;;-6.84;73.31
58239;BME280;44037;55.638;37.356;2022-12-08T08:13:39;99411.47;;;-6.83;73.17
58239;BME280;44037;55.638;37.356;2022-12-08T08:16:07;99415.28;;;-6.88;73.11
58239;BME280;44037;55.638;37.356;2022-12-08T08:18:35;99416.06;;;-6.89;73.27
58239;BME280;44037;55.638;37.356;2022-12-08T08:21:03;99413.53;;;-6.89;73.19
58239;BME280;44037;55.638;37.356;2022-12-08T08:23:30;99412.63;;;-6.89;73.29
58239;BME280;44037;55.638;37.356;2022-12-08T08:26:00;99417.38;;;-6.82;73.30
58239;BME280;44037;55.638;37.356;2022-12-08T08:28:27;99417.06;;;-6.75;73.53
58239;BME280;44037;55.638;37.356;2022-12-08T08:30:54;99410.31;;;-6.64;73.57
58239;BME280;44037;55.638;37.356;2022-12-08T08:33:21;99411.75;;;-6.56;73.22
58239;BME280;44037;55.638;37.356;2022-12-08T08:35:49;99417.56;;;-6.45;73.13
58239;BME280;44037;55.638;37.356;2022-12-08T08:38:16;99416.38;;;-6.38;73.02
58239;BME280;44037;55.638;37.356;2022-12-08T08:40:43;99405.63;;;-6.36;72.40
58239;BME280;44037;55.638;37.356;2022-12-08T08:43:11;99404.53;;;-6.39;72.71
58239;BME280;44037;55.638;37.356;2022-12-08T08:45:55;99404.41;;;-6.41;72.61
58239;BME280;44037;55.638;37.356;2022-12-08T08:48:24;99416.06;;;-6.43;72.56
58239;BME280;44037;55.638;37.356;2022-12-08T08:50:52;99412.72;;;-6.42;72.83
58239;BME280;44037;55.638;37.356;2022-12-08T08:53:19;99407.81;;;-6.40;73.23
58239;BME280;44037;55.638;37.356;2022-12-08T08:55:46;99412.88;;;-6.40;73.38
58239;BME280;44037;55.638;37.356;2022-12-08T08:58:15;99411.78;;;-6.44;73.37
58239;BME280;44037;55.638;37.356;2022-12-08T09:00:43;99413.16;;;-6.48;73.69
58239;BME280;44037;55.638;37.356;2022-12-08T09:03:10;99413.72;;;-6.52;73.17
58239;BME280;44037;55.638;37.356;2022-12-08T09:05:37;99414.34;;;-6.54;73.48
58239;BME280;44037;55.638;37.356;2022-12-08T09:08:05;99425.25;;;-6.55;73.13
58239;BME280;44037;55.638;37.356;2022-12-08T09:10:32;99417.44;;;-6.58;73.21
58239;BME280;44037;55.638;37.356;2022-12-08T09:13:00;99421.72;;;-6.57;73.43
58239;BME280;44037;55.638;37.356;2022-12-08T09:15:28;99410.88;;;-6.56;73.68
58239;BME280;44037;55.638;37.356;2022-12-08T09:17:55;99412.28;;;-6.60;73.46
58239;BME280;44037;55.638;37.356;2022-12-08T09:20:22;99407.78;;;-6.64;73.14
58239;BME280;44037;55.638;37.356;2022-12-08T09:22:50;99400.00;;;-6.67;73.15
58239;BME280;44037;55.638;37.356;2022-12-08T09:25:17;99400.75;;;-6.68;73.28
58239;BME280;44037;55.638;37.356;2022-12-08T09:27:44;99398.91;;;-6.71;73.21
58239;BME280;44037;55.638;37.356;2022-12-08T09:30:11;99396.16;;;-6.74;73.25
58239;BME280;44037;55.638;37.356;2022-12-08T09:32:40;99395.91;;;-6.77;73.26
58239;BME280;44037;55.638;37.356;2022-12-08T09:35:07;99398.31;;;-6.79;73.53
58239;BME280;44037;55.638;37.356;2022-12-08T09:37:34;99400.09;;;-6.77;73.94
58239;BME280;44037;55.638;37.356;2022-12-08T09:40:01;99397.81;;;-6.74;74.12
58239;BME280;44037;55.638;37.356;2022-12-08T09:42:35;99409.50;;;-6.75;74.17
58239;BME280;44037;55.638;37.356;2022-12-08T09:45:11;99396.81;;;-6.76;73.91
58239;BME280;44037;55.638;37.356;2022-12-08T09:47:44;99401.19;;;-6.74;74.30
58239;BME280;44037;55.638;37.356;2022-12-08T09:50:15;99401.63;;;-6.68;74.22
58239;BME280;44037;55.638;37.356;2022-12-08T09:52:48;99407.88;;;-6.63;74.22
58239;BME280;44037;55.638;37.356;2022-12-08T09:55:22;99404.94;;;-6.57;74.51
58239;BME280;44037;55.638;37.356;2022-12-08T09:57:56;99407.94;;;-6.51;74.54
58239;BME280;44037;55.638;37.356;2022-12-08T10:00:26;99414.81;;;-6.48;74.60
58239;BME280;44037;55.638;37.356;2022-12-08T10:02:55;99412.53;;;-6.45;74.79
58239;BME280;44037;55.638;37.356;2022-12-08T10:05:22;99399.69;;;-6.48;74.55
58239;BME280;44037;55.638;37.356;2022-12-08T10:07:59;99401.22;;;-6.50;74.71
58239;BME280;44037;55.638;37.356;2022-12-08T10:10:37;99403.41;;;-6.55;74.49
58239;BME280;44037;55.638;37.356;2022-12-08T10:13:10;99398.91;;;-6.59;74.47
58239;BME280;44037;55.638;37.356;2022-12-08T10:15:41;99398.81;;;-6.60;74.94
58239;BME280;44037;55.638;37.356;2022-12-08T10:18:14;99398.91;;;-6.59;74.76
58239;BME280;44037;55.638;37.356;2022-12-08T10:20:48;99396.63;;;-6.56;74.95
58239;BME280;44037;55.638;37.356;2022-12-08T10:23:25;99400.47;;;-6.49;75.33
58239;BME280;44037;55.638;37.356;2022-12-08T10:25:57;99392.13;;;-6.48;75.06
58239;BME280;44037;55.638;37.356;2022-12-08T10:28:26;99389.63;;;-6.48;75.21
58239;BME280;44037;55.638;37.356;2022-12-08T10:30:53;99395.41;;;-6.49;75.14
58239;BME280;44037;55.638;37.356;2022-12-08T10:33:22;99398.94;;;-6.47;75.50
58239;BME280;44037;55.638;37.356;2022-12-08T10:35:50;99400.69;;;-6.46;75.29
58239;BME280;44037;55.638;37.356;2022-12-08T10:38:21;99393.88;;;-6.47;75.33
58239;BME280;44037;55.638;37.356;2022-12-08T10:40:50;99389.63;;;-6.48;75.34
58239;BME280;44037;55.638;37.356;2022-12-08T10:43:21;99398.16;;;-6.46;75.65
58239;BME280;44037;55.638;37.356;2022-12-08T10:45:50;99386.56;;;-6.44;75.81
58239;BME280;44037;55.638;37.356;2022-12-08T10:48:18;99394.22;;;-6.42;75.72
58239;BME280;44037;55.638;37.356;2022-12-08T10:50:53;99381.06;;;-6.38;75.99
58239;BME280;44037;55.638;37.356;2022-12-08T10:53:22;99392.59;;;-6.30;76.37
58239;BME280;44037;55.638;37.356;2022-12-08T10:55:51;99375.16;;;-6.27;76.24
58239;BME280;44037;55.638;37.356;2022-12-08T10:58:27;99376.91;;;-6.26;76.07
58239;BME280;44037;55.638;37.356;2022-12-08T11:00:57;99375.16;;;-6.27;75.93
58239;BME280;44037;55.638;37.356;2022-12-08T11:03:27;99380.19;;;-6.27;75.89
58239;BME280;44037;55.638;37.356;2022-12-08T11:05:58;99376.69;;;-6.29;76.13
58239;BME280;44037;55.638;37.356;2022-12-08T11:08:27;99377.56;;;-6.28;76.21
58239;BME280;44037;55.638;37.356;2022-12-08T11:10:54;99387.53;;;-6.30;76.55
58239;BME280;44037;55.638;37.356;2022-12-08T11:13:23;99381.72;;;-6.29;76.97
58239;BME280;44037;55.638;37.356;2022-12-08T11:15:51;99373.16;;;-6.31;76.89
58239;BME280;44037;55.638;37.356;2022-12-08T11:18:26;99382.41;;;-6.31;77.01
58239;BME280;44037;55.638;37.356;2022-12-08T11:21:01;99377.13;;;-6.35;77.12
58239;BME280;44037;55.638;37.356;2022-12-08T11:23:35;99378.97;;;-6.32;77.56
58239;BME280;44037;55.638;37.356;2022-12-08T11:26:06;99367.25;;;-6.31;76.93
58239;BME280;44037;55.638;37.356;2022-12-08T11:28:36;99381.50;;;-6.32;77.31
58239;BME280;44037;55.638;37.356;2022-12-08T11:31:08;99387.53;;;-6.30;77.64
58239;BME280;44037;55.638;37.356;2022-12-08T11:33:39;99381.63;;;-6.30;77.29
58239;BME280;44037;55.638;37.356;2022-12-08T11:36:11;99385.88;;;-6.29;77.46
58239;BME280;44037;55.638;37.356;2022-12-08T11:38:42;99380.31;;;-6.25;77.70
58239;BME280;44037;55.638;37.356;2022-12-08T11:41:12;99379.44;;;-6.26;77.16
58239;BME280;44037;55.638;37.356;2022-12-08T11:43:45;99378.53;;;-6.26;77.48
58239;BME280;44037;55.638;37.356;2022-12-08T11:46:16;99377.00;;;-6.24;77.98
58239;BME280;44037;55.638;37.356;2022-12-08T11:48:49;99374.50;;;-6.24;77.72
58239;BME280;44037;55.638;37.356;2022-12-08T11:51:23;99394.00;;;-6.22;77.58
58239;BME280;44037;55.638;37.356;2022-12-08T11:54:04;99380.53;;;-6.22;77.52
58239;BME280;44037;55.638;37.356;2022-12-08T11:56:39;99395.88;;;-6.19;77.58
58239;BME280;44037;55.638;37.356;2022-12-08T11:59:14;99389.19;;;-6.19;77.44
58239;BME280;44037;55.638;37.356;2022-12-08T12:01:43;99395.66;;;-6.22;77.26
58239;BME280;44037;55.638;37.356;2022-12-08T12:04:15;99402.34;;;-6.23;77.61
58239;BME280;44037;55.638;37.356;2022-12-08T12:07:01;99399.19;;;-6.20;77.62
58239;BME280;44037;55.638;37.356;2022-12-08T12:09:41;99395.97;;;-6.18;77.78
58239;BME280;44037;55.638;37.356;2022-12-08T12:12:19;99387.75;;;-6.15;77.80
58239;BME280;44037;55.638;37.356;2022-12-08T12:17:56;99394.00;;;-6.10;77.72
58239;BME280;44037;55.638;37.356;2022-12-08T12:20:27;99392.25;;;-6.11;77.74
58239;BME280;44037;55.638;37.356;2022-12-08T12:23:00;99387.31;;;-6.09;77.73
58239;BME280;44037;55.638;37.356;2022-12-08T12:25:31;99396.53;;;-6.10;77.76
58239;BME280;44037;55.638;37.356;2022-12-08T12:28:02;99403.34;;;-6.09;78.02
58239;BME280;44037;55.638;37.356;2022-12-08T12:30:48;99401.81;;;-6.07;77.96
58239;BME280;44037;55.638;37.356;2022-12-08T12:33:17;99409.16;;;-6.10;77.86
58239;BME280;44037;55.638;37.356;2022-12-08T12:35:45;99404.78;;;-6.12;77.55
58239;BME280;44037;55.638;37.356;2022-12-08T12:38:22;99412.97;;;-6.15;77.83
58239;BME280;44037;55.638;37.356;2022-12-08T12:41:09;99413.09;;;-6.13;77.87
58239;BME280;44037;55.638;37.356;2022-12-08T12:43:37;99425.81;;;-6.12;78.04
58239;BME280;44037;55.638;37.356;2022-12-08T12:49:51;99428.25;;;-6.13;77.83
58239;BME280;44037;55.638;37.356;2022-12-08T12:52:46;99432.63;;;-6.11;78.11
58239;BME280;44037;55.638;37.356;2022-12-08T12:55:27;99427.56;;;-6.11;78.32
58239;BME280;44037;55.638;37.356;2022-12-08T12:57:56;99427.03;;;-6.07;78.36
58239;BME280;44037;55.638;37.356;2022-12-08T13:00:25;99426.28;;;-6.06;78.12
58239;BME280;44037;55.638;37.356;2022-12-08T13:02:53;99425.16;;;-6.09;78.29
58239;BME280;44037;55.638;37.356;2022-12-08T13:05:23;99422.53;;;-6.11;78.22
58239;BME280;44037;55.638;37.356;2022-12-08T13:07:53;99430.84;;;-6.12;78.18
58239;BME280;44037;55.638;37.356;2022-12-08T13:10:26;99431.63;;;-6.13;78.08
58239;BME280;44037;55.638;37.356;2022-12-08T13:13:14;99430.63;;;-6.15;78.41
58239;BME280;44037;55.638;37.356;2022-12-08T13:15:48;99424.81;;;-6.14;78.26